createdAt,value
2023-02-27T00:00:29.427Z,22.84
2023-02-27T00:01:29.413Z,22.83
2023-02-27T00:02:29.437Z,22.84
2023-02-27T00:03:29.432Z,22.84
2023-02-27T00:04:29.398Z,22.84
2023-02-27T00:05:29.364Z,22.84
2023-02-27T00:55:38.747Z,22.39
2023-02-27T00:56:39.686Z,22.61
2023-02-27T00:57:39.684Z,22.67
2023-02-27T00:58:39.600Z,22.71
2023-02-27T00:59:39.563Z,22.73
2023-02-27T01:00:39.534Z,22.77
2023-02-27T01:01:39.475Z,22.79
2023-02-27T01:02:39.517Z,22.79
2023-02-27T01:03:39.385Z,22.80
2023-02-27T01:04:39.332Z,22.81
2023-02-27T01:05:39.452Z,22.81
2023-02-27T01:06:39.237Z,22.81
2023-02-27T01:07:39.212Z,22.81
2023-02-27T01:08:39.160Z,22.82
2023-02-27T01:09:39.113Z,22.82
2023-02-27T01:10:39.060Z,22.82
2023-02-27T01:11:39.046Z,22.82
2023-02-27T01:12:38.969Z,22.82
2023-02-27T01:13:38.926Z,22.82
2023-02-27T01:14:38.889Z,22.82
2023-02-27T01:15:38.830Z,22.82
2023-02-27T01:16:38.824Z,22.81
2023-02-27T01:17:38.739Z,22.83
2023-02-27T01:18:38.705Z,22.81
2023-02-27T01:19:38.655Z,22.82
2023-02-27T01:20:38.625Z,22.82
2023-02-27T01:21:38.568Z,22.82
2023-02-27T01:22:38.517Z,22.82
2023-02-27T01:23:38.471Z,22.81
2023-02-27T01:24:38.440Z,22.82
2023-02-27T01:25:38.397Z,22.82
2023-02-27T01:26:38.341Z,22.82
2023-02-27T01:27:38.329Z,22.81
2023-02-27T01:28:38.250Z,22.81
2023-02-27T01:29:38.210Z,22.81
2023-02-27T01:30:38.191Z,22.81
2023-02-27T01:31:38.148Z,22.82
2023-02-27T01:32:38.186Z,22.82
2023-02-27T01:33:38.034Z,22.82
2023-02-27T01:34:38.012Z,22.81
2023-02-27T01:35:37.953Z,22.82
2023-02-27T01:36:37.904Z,22.82
2023-02-27T01:37:37.872Z,22.82
2023-02-27T01:38:37.824Z,22.82
2023-02-27T01:39:37.784Z,22.81
2023-02-27T01:40:37.730Z,22.82
2023-02-27T01:41:37.688Z,22.82
2023-02-27T01:42:37.659Z,22.82
2023-02-27T01:43:37.624Z,22.82
2023-02-27T01:44:37.554Z,22.82
2023-02-27T01:45:37.540Z,22.81
2023-02-27T01:46:37.476Z,22.82
2023-02-27T01:47:37.440Z,22.81
2023-02-27T01:48:37.412Z,22.83
2023-02-27T01:49:37.369Z,22.82
2023-02-27T01:50:37.334Z,22.82
2023-02-27T01:51:37.303Z,22.82
2023-02-27T01:52:37.265Z,22.81
2023-02-27T01:53:37.219Z,22.81
2023-02-27T01:54:37.179Z,22.81
2023-02-27T01:55:37.140Z,22.81
2023-02-27T01:56:37.097Z,22.81
2023-02-27T01:57:37.054Z,22.81
2023-02-27T01:58:37.013Z,22.81
2023-02-27T01:59:36.995Z,22.80
2023-02-27T02:00:36.927Z,22.81
2023-02-27T02:01:36.936Z,22.81
2023-02-27T02:02:36.848Z,22.81
2023-02-27T02:03:36.842Z,22.81
2023-02-27T02:04:36.751Z,22.80
2023-02-27T02:05:36.746Z,22.81
2023-02-27T02:06:36.664Z,22.81
2023-02-27T02:07:36.636Z,22.81
2023-02-27T02:08:36.602Z,22.81
2023-02-27T02:09:36.539Z,22.81
2023-02-27T02:10:36.490Z,22.81
2023-02-27T02:11:36.471Z,22.81
2023-02-27T02:12:36.423Z,22.81
2023-02-27T02:13:36.382Z,22.81
2023-02-27T02:14:36.346Z,22.80
2023-02-27T02:15:36.339Z,22.81
2023-02-27T02:16:36.303Z,22.81
2023-02-27T02:17:36.231Z,22.81
2023-02-27T02:18:36.185Z,22.80
2023-02-27T02:19:36.128Z,22.80
2023-02-27T02:20:36.088Z,22.81
2023-02-27T02:21:36.052Z,22.81
2023-02-27T02:22:36.004Z,22.80
2023-02-27T02:23:35.983Z,22.81
2023-02-27T02:24:35.916Z,22.81
2023-02-27T02:25:35.863Z,22.80
2023-02-27T02:26:35.821Z,22.80
2023-02-27T02:27:35.774Z,22.81
2023-02-27T02:28:35.738Z,22.81
2023-02-27T02:29:35.717Z,22.81
2023-02-27T02:30:35.744Z,22.80
2023-02-27T02:31:35.806Z,22.81
2023-02-27T02:32:35.598Z,22.81
2023-02-27T02:33:35.559Z,22.80
2023-02-27T02:34:35.515Z,22.81
2023-02-27T02:35:35.473Z,22.81
2023-02-27T02:36:35.428Z,22.80
2023-02-27T02:37:35.428Z,22.80
2023-02-27T02:38:35.365Z,22.80
2023-02-27T02:39:35.326Z,22.79
2023-02-27T02:40:35.272Z,22.80
2023-02-27T02:41:35.236Z,22.80
2023-02-27T02:42:35.201Z,22.80
2023-02-27T02:43:35.169Z,22.79
2023-02-27T02:44:35.134Z,22.79
2023-02-27T02:45:35.092Z,22.80
2023-02-27T02:46:35.056Z,22.79
2023-02-27T02:47:35.139Z,22.79
2023-02-27T02:48:34.984Z,22.79
2023-02-27T02:49:34.941Z,22.79
2023-02-27T02:50:34.901Z,22.79
2023-02-27T02:51:34.871Z,22.79
2023-02-27T02:52:34.832Z,22.79
2023-02-27T02:53:37.308Z,22.79
2023-02-27T02:54:34.778Z,22.79
2023-02-27T02:55:34.719Z,22.78
2023-02-27T02:56:34.682Z,22.78
2023-02-27T02:57:34.646Z,22.79
2023-02-27T02:58:34.606Z,22.79
2023-02-27T02:59:34.559Z,22.78
2023-02-27T03:00:34.506Z,22.78
2023-02-27T03:01:34.528Z,22.78
2023-02-27T03:02:34.426Z,22.78
2023-02-27T03:03:34.403Z,22.78
2023-02-27T03:04:34.401Z,22.78
2023-02-27T03:05:34.339Z,22.78
2023-02-27T03:06:34.271Z,22.78
2023-02-27T03:07:34.277Z,22.77
2023-02-27T03:08:34.168Z,22.77
2023-02-27T03:09:34.137Z,22.77
2023-02-27T03:10:34.095Z,22.77
2023-02-27T03:11:34.065Z,22.78
2023-02-27T03:12:34.032Z,22.77
2023-02-27T03:13:34.012Z,22.77
2023-02-27T03:14:33.944Z,22.77
2023-02-27T03:15:33.949Z,22.77
2023-02-27T03:16:33.858Z,22.77
2023-02-27T03:17:33.817Z,22.77
2023-02-27T03:18:33.775Z,22.78
2023-02-27T03:19:33.755Z,22.78
2023-02-27T03:20:33.688Z,22.78
2023-02-27T03:21:33.643Z,22.77
2023-02-27T03:22:33.601Z,22.77
2023-02-27T03:23:33.564Z,22.78
2023-02-27T03:24:33.531Z,22.78
2023-02-27T03:25:33.498Z,22.78
2023-02-27T03:26:33.458Z,22.78
2023-02-27T03:27:33.416Z,22.77
2023-02-27T03:28:33.377Z,22.77
2023-02-27T03:29:33.340Z,22.77
2023-02-27T03:30:33.307Z,22.78
2023-02-27T03:31:33.328Z,22.77
2023-02-27T03:32:33.319Z,22.76
2023-02-27T03:33:33.170Z,22.77
2023-02-27T03:34:33.165Z,22.77
2023-02-27T03:35:33.121Z,22.76
2023-02-27T03:36:33.066Z,22.77
2023-02-27T03:37:32.991Z,22.77
2023-02-27T03:38:32.961Z,22.78
2023-02-27T03:39:32.928Z,22.77
2023-02-27T03:40:32.899Z,22.77
2023-02-27T03:41:32.862Z,22.77
2023-02-27T03:42:32.809Z,22.77
2023-02-27T03:43:32.765Z,22.77
2023-02-27T03:44:32.722Z,22.76
2023-02-27T03:45:32.670Z,22.77
2023-02-27T03:46:32.700Z,22.77
2023-02-27T03:47:32.593Z,22.76
2023-02-27T03:48:32.573Z,22.77
2023-02-27T03:49:32.524Z,22.77
2023-02-27T03:50:32.493Z,22.76
2023-02-27T03:51:32.470Z,22.77
2023-02-27T03:52:32.428Z,22.77
2023-02-27T03:53:32.365Z,22.77
2023-02-27T03:54:32.322Z,22.77
2023-02-27T03:55:32.278Z,22.77
2023-02-27T03:56:32.238Z,22.76
2023-02-27T03:57:32.203Z,22.76
2023-02-27T03:58:32.157Z,22.77
2023-02-27T03:59:32.107Z,22.77
2023-02-27T04:00:32.071Z,22.77
2023-02-27T04:01:32.059Z,22.77
2023-02-27T04:02:32.060Z,22.77
2023-02-27T04:03:31.939Z,22.77
2023-02-27T04:04:31.968Z,22.77
2023-02-27T04:05:31.864Z,22.77
2023-02-27T04:06:31.816Z,22.77
2023-02-27T04:07:31.813Z,22.77
2023-02-27T04:08:31.742Z,22.77
2023-02-27T04:09:31.711Z,22.76
2023-02-27T04:10:31.659Z,22.77
2023-02-27T04:11:31.609Z,22.76
2023-02-27T04:12:31.575Z,22.77
2023-02-27T04:13:31.547Z,22.77
2023-02-27T04:14:31.485Z,22.77
2023-02-27T04:15:31.445Z,22.77
2023-02-27T04:16:31.406Z,22.77
2023-02-27T04:17:31.368Z,22.77
2023-02-27T04:18:31.331Z,22.76
2023-02-27T04:19:31.297Z,22.77
2023-02-27T04:20:31.256Z,22.77
2023-02-27T04:21:31.218Z,22.76
2023-02-27T04:22:31.190Z,22.77
2023-02-27T04:23:31.176Z,22.77
2023-02-27T04:24:31.097Z,22.76
2023-02-27T04:25:31.060Z,22.76
2023-02-27T04:26:31.004Z,22.77
2023-02-27T04:27:30.965Z,22.77
2023-02-27T04:28:30.924Z,22.76
2023-02-27T04:29:30.894Z,22.76
2023-02-27T04:30:30.845Z,22.76
2023-02-27T04:31:31.333Z,22.75
2023-02-27T04:32:30.969Z,22.75
2023-02-27T04:33:30.745Z,22.76
2023-02-27T04:34:30.719Z,22.76
2023-02-27T04:35:30.672Z,22.76
2023-02-27T04:36:30.659Z,22.76
2023-02-27T04:37:30.627Z,22.76
2023-02-27T04:38:30.594Z,22.75
2023-02-27T04:39:30.576Z,22.76
2023-02-27T04:40:30.499Z,22.75
2023-02-27T04:41:30.465Z,22.75
2023-02-27T04:42:30.426Z,22.75
2023-02-27T04:43:30.378Z,22.75
2023-02-27T04:44:30.352Z,22.74
2023-02-27T04:45:30.339Z,22.75
2023-02-27T04:46:30.269Z,22.75
2023-02-27T04:47:30.236Z,22.76
2023-02-27T04:48:30.188Z,22.75
2023-02-27T04:49:30.142Z,22.75
2023-02-27T04:50:30.099Z,22.76
2023-02-27T04:51:30.048Z,22.75
2023-02-27T04:52:30.037Z,22.75
2023-02-27T04:53:29.981Z,22.75
2023-02-27T04:54:29.942Z,22.75
2023-02-27T04:55:29.922Z,22.75
2023-02-27T04:56:29.862Z,22.75
2023-02-27T04:57:29.816Z,22.76
2023-02-27T04:58:29.773Z,22.75
2023-02-27T04:59:29.731Z,22.75
2023-02-27T05:00:29.693Z,22.75
2023-02-27T05:01:30.169Z,22.75
2023-02-27T05:02:29.733Z,22.75
2023-02-27T05:03:29.572Z,22.76
2023-02-27T05:04:29.536Z,22.75
2023-02-27T05:05:29.496Z,22.74
2023-02-27T05:06:29.442Z,22.74
2023-02-27T05:07:29.403Z,22.75
2023-02-27T05:08:29.366Z,22.75
2023-02-27T05:09:29.336Z,22.76
2023-02-27T05:10:29.288Z,22.75
2023-02-27T05:11:29.552Z,22.75
2023-02-27T05:12:29.214Z,22.74
2023-02-27T05:13:29.182Z,22.74
2023-02-27T05:14:29.155Z,22.75
2023-02-27T05:15:29.155Z,22.74
2023-02-27T05:16:29.149Z,22.75
2023-02-27T05:17:29.072Z,22.74
2023-02-27T05:18:29.024Z,22.73
2023-02-27T05:19:28.989Z,22.74
2023-02-27T05:20:29.865Z,22.73
2023-02-27T05:21:29.445Z,22.73
2023-02-27T05:22:28.890Z,22.73
2023-02-27T05:23:28.832Z,22.73
2023-02-27T05:24:28.791Z,22.73
2023-02-27T05:25:28.755Z,22.74
2023-02-27T05:26:28.711Z,22.73
2023-02-27T05:27:28.696Z,22.73
2023-02-27T05:28:28.634Z,22.73
2023-02-27T05:29:28.569Z,22.73
2023-02-27T05:30:28.525Z,22.74
2023-02-27T05:31:28.878Z,22.73
2023-02-27T05:32:28.474Z,22.73
2023-02-27T05:33:28.381Z,22.73
2023-02-27T05:34:28.334Z,22.73
2023-02-27T05:35:29.400Z,22.73
2023-02-27T05:36:28.241Z,22.74
2023-02-27T05:37:28.208Z,22.73
2023-02-27T05:38:28.144Z,22.73
2023-02-27T05:39:28.103Z,22.74
2023-02-27T05:40:28.054Z,22.74
2023-02-27T05:41:28.296Z,22.74
2023-02-27T05:42:27.997Z,22.74
2023-02-27T05:43:27.940Z,22.73
2023-02-27T05:44:27.868Z,22.73
2023-02-27T05:45:27.857Z,22.74
2023-02-27T05:46:27.786Z,22.74
2023-02-27T05:47:27.755Z,22.74
2023-02-27T05:48:27.710Z,22.75
2023-02-27T05:49:27.667Z,22.74
2023-02-27T05:50:27.623Z,22.74
2023-02-27T05:51:27.850Z,22.75
2023-02-27T05:52:27.533Z,22.73
2023-02-27T05:53:27.495Z,22.74
2023-02-27T05:54:27.446Z,22.74
2023-02-27T05:55:27.407Z,22.75
2023-02-27T05:56:27.621Z,22.74
2023-02-27T05:57:27.357Z,22.73
2023-02-27T05:58:27.286Z,22.73
2023-02-27T05:59:27.269Z,22.73
2023-02-27T06:00:27.200Z,22.73
2023-02-27T06:01:27.142Z,22.73
2023-02-27T06:02:27.238Z,22.73
2023-02-27T06:03:27.138Z,22.73
2023-02-27T06:04:27.006Z,22.73
2023-02-27T06:05:27.464Z,22.73
2023-02-27T06:06:27.282Z,22.73
2023-02-27T06:07:26.874Z,22.72
2023-02-27T06:08:26.886Z,22.73
2023-02-27T06:09:26.815Z,22.73
2023-02-27T06:10:26.756Z,22.74
2023-02-27T06:11:26.697Z,22.72
2023-02-27T06:12:26.651Z,22.73
2023-02-27T06:13:26.616Z,22.73
2023-02-27T06:14:26.571Z,22.74
2023-02-27T06:15:26.535Z,22.73
2023-02-27T06:16:26.872Z,22.74
2023-02-27T06:17:26.490Z,22.75
2023-02-27T06:18:26.359Z,22.73
2023-02-27T06:19:26.325Z,22.73
2023-02-27T06:20:26.280Z,22.73
2023-02-27T06:21:26.243Z,22.74
2023-02-27T06:22:26.487Z,22.75
2023-02-27T06:23:26.160Z,22.76
2023-02-27T06:24:26.125Z,22.75
2023-02-27T06:25:26.066Z,22.77
2023-02-27T06:26:26.471Z,22.76
2023-02-27T06:27:26.553Z,22.77
2023-02-27T06:28:25.941Z,22.78
2023-02-27T06:29:25.908Z,22.78
2023-02-27T06:30:25.850Z,22.79
2023-02-27T06:31:26.030Z,22.79
2023-02-27T06:32:25.927Z,22.80
2023-02-27T06:33:25.715Z,22.80
2023-02-27T06:34:25.647Z,22.80
2023-02-27T06:35:25.599Z,22.82
2023-02-27T06:36:26.384Z,22.82
2023-02-27T06:37:25.474Z,22.83
2023-02-27T06:38:25.428Z,22.83
2023-02-27T06:39:25.464Z,22.84
2023-02-27T06:40:25.341Z,22.84
2023-02-27T06:41:25.297Z,22.84
2023-02-27T06:42:25.254Z,22.85
2023-02-27T06:43:25.219Z,22.86
2023-02-27T06:44:25.463Z,22.86
2023-02-27T06:45:25.114Z,22.88
2023-02-27T06:46:25.452Z,22.89
2023-02-27T06:47:25.049Z,22.88
2023-02-27T06:48:24.996Z,22.90
2023-02-27T06:49:24.992Z,22.90
2023-02-27T06:50:24.934Z,22.92
2023-02-27T06:51:24.881Z,22.93
2023-02-27T06:52:24.847Z,22.94
2023-02-27T06:53:24.793Z,22.94
2023-02-27T06:54:25.303Z,22.96
2023-02-27T06:55:24.700Z,22.97
2023-02-27T06:56:24.938Z,22.97
2023-02-27T06:57:25.461Z,22.98
2023-02-27T06:58:24.583Z,22.99
2023-02-27T06:59:24.511Z,22.99
2023-02-27T07:00:24.965Z,22.99
2023-02-27T07:01:24.450Z,23.00
2023-02-27T07:02:24.398Z,23.00
2023-02-27T07:03:24.525Z,22.99
2023-02-27T07:04:39.920Z,23.00
2023-02-27T07:05:27.457Z,22.99
2023-02-27T07:07:32.433Z,22.99
2023-02-27T07:07:36.367Z,22.98
2023-02-27T07:08:24.132Z,22.97
2023-02-27T07:09:25.060Z,22.97
2023-02-27T07:10:24.068Z,22.98
2023-02-27T07:11:23.937Z,22.97
2023-02-27T07:12:23.877Z,22.97
2023-02-27T07:13:23.831Z,22.98
2023-02-27T07:14:24.002Z,22.98
2023-02-27T07:15:24.034Z,22.97
2023-02-27T07:16:23.699Z,22.97
2023-02-27T07:17:23.652Z,22.97
2023-02-27T07:18:23.756Z,22.97
2023-02-27T07:19:55.664Z,22.96
2023-02-27T07:20:24.136Z,22.94
2023-02-27T07:21:23.494Z,22.95
2023-02-27T07:22:23.457Z,22.96
2023-02-27T07:23:23.413Z,22.95
2023-02-27T07:24:23.508Z,22.96
2023-02-27T07:25:23.320Z,22.95
2023-02-27T07:26:23.280Z,22.95
2023-02-27T07:27:23.237Z,22.96
2023-02-27T07:28:23.599Z,22.96
2023-02-27T07:29:23.157Z,22.96
2023-02-27T07:30:23.118Z,22.96
2023-02-27T07:31:23.126Z,22.95
2023-02-27T07:32:23.653Z,22.95
2023-02-27T07:33:23.000Z,22.95
2023-02-27T07:34:22.952Z,22.96
2023-02-27T07:35:22.941Z,22.96
2023-02-27T07:36:23.155Z,22.96
2023-02-27T07:37:22.838Z,22.96
2023-02-27T07:38:22.793Z,22.96
2023-02-27T07:39:22.792Z,22.96
2023-02-27T07:40:22.728Z,22.96
2023-02-27T07:41:30.447Z,22.96
2023-02-27T07:42:22.647Z,22.95
2023-02-27T07:43:25.809Z,22.95
2023-02-27T07:44:23.040Z,22.95
2023-02-27T07:45:22.571Z,22.95
2023-02-27T07:46:23.126Z,22.96
2023-02-27T07:47:23.073Z,22.95
2023-02-27T07:48:22.436Z,22.96
2023-02-27T07:49:22.514Z,22.97
2023-02-27T07:50:22.514Z,22.97
2023-02-27T07:51:22.335Z,22.97
2023-02-27T07:52:23.233Z,22.98
2023-02-27T07:53:22.210Z,22.98
2023-02-27T07:54:22.579Z,22.99
2023-02-27T07:55:22.534Z,22.99
2023-02-27T07:56:22.104Z,22.99
2023-02-27T07:57:22.040Z,22.99
2023-02-27T07:58:22.989Z,22.99
2023-02-27T07:59:22.057Z,23.00
2023-02-27T08:00:21.940Z,22.99
2023-02-27T08:01:22.055Z,23.00
2023-02-27T08:02:21.919Z,23.00
2023-02-27T08:03:21.799Z,23.00
2023-02-27T08:04:21.804Z,23.01
2023-02-27T08:05:22.029Z,23.00
2023-02-27T08:06:21.916Z,23.01
2023-02-27T08:07:21.676Z,23.01
2023-02-27T08:08:21.594Z,23.01
2023-02-27T08:09:21.563Z,23.00
2023-02-27T08:10:21.534Z,23.01
2023-02-27T08:11:21.513Z,23.01
2023-02-27T08:12:21.445Z,23.02
2023-02-27T08:13:42.270Z,23.01
2023-02-27T08:14:21.539Z,23.01
2023-02-27T08:15:21.277Z,23.01
2023-02-27T08:16:21.289Z,23.02
2023-02-27T08:17:21.184Z,23.02
2023-02-27T08:18:21.449Z,23.03
2023-02-27T08:19:21.505Z,23.02
2023-02-27T08:20:21.055Z,23.03
2023-02-27T08:21:21.019Z,23.03
2023-02-27T08:22:20.978Z,23.03
2023-02-27T08:23:20.936Z,23.04
2023-02-27T08:24:21.017Z,23.04
2023-02-27T08:25:20.822Z,23.05
2023-02-27T08:26:21.219Z,23.05
2023-02-27T08:27:20.774Z,23.05
2023-02-27T08:28:21.104Z,23.05
2023-02-27T08:29:21.409Z,23.05
2023-02-27T08:30:20.849Z,23.05
2023-02-27T08:31:20.877Z,23.05
2023-02-27T08:32:21.075Z,23.06
2023-02-27T08:33:20.505Z,23.07
2023-02-27T08:34:20.457Z,23.07
2023-02-27T08:35:20.417Z,23.07
2023-02-27T08:36:20.380Z,23.08
2023-02-27T08:37:20.826Z,23.09
2023-02-27T08:38:20.817Z,23.09
2023-02-27T08:39:20.295Z,23.11
2023-02-27T08:40:20.515Z,23.12
2023-02-27T08:41:20.194Z,23.14
2023-02-27T08:42:20.188Z,23.16
2023-02-27T08:43:20.512Z,23.18
2023-02-27T08:44:20.067Z,23.20
2023-02-27T08:45:21.008Z,23.23
2023-02-27T08:46:19.960Z,23.24
2023-02-27T08:47:19.922Z,23.26
2023-02-27T08:48:20.022Z,23.28
2023-02-27T08:49:21.550Z,23.32
2023-02-27T08:50:20.014Z,23.33
2023-02-27T08:51:20.210Z,23.35
2023-02-27T08:52:19.735Z,23.39
2023-02-27T08:53:22.865Z,23.42
2023-02-27T08:54:19.920Z,23.44
2023-02-27T08:55:20.329Z,23.46
2023-02-27T08:56:19.493Z,23.47
2023-02-27T08:57:19.426Z,23.49
2023-02-27T08:58:20.379Z,23.50
2023-02-27T08:59:19.512Z,23.52
2023-02-27T09:00:19.573Z,23.55
2023-02-27T09:01:19.258Z,23.56
2023-02-27T09:02:19.182Z,23.58
2023-02-27T09:03:19.529Z,23.61
2023-02-27T09:04:19.039Z,23.62
2023-02-27T09:05:18.987Z,23.64
2023-02-27T09:06:19.921Z,23.66
2023-02-27T09:07:18.872Z,23.66
2023-02-27T09:08:19.022Z,23.68
2023-02-27T09:09:18.753Z,23.69
2023-02-27T09:10:18.702Z,23.70
2023-02-27T09:11:18.670Z,23.70
2023-02-27T09:12:18.587Z,23.72
2023-02-27T09:13:19.314Z,23.73
2023-02-27T09:14:18.518Z,23.75
2023-02-27T09:15:18.434Z,23.77
2023-02-27T09:16:18.592Z,23.78
2023-02-27T09:17:18.329Z,23.79
2023-02-27T09:18:18.293Z,23.80
2023-02-27T09:19:18.239Z,23.81
2023-02-27T09:20:18.528Z,23.82
2023-02-27T09:21:18.548Z,23.83
2023-02-27T09:22:18.092Z,23.82
2023-02-27T09:23:18.047Z,23.83
2023-02-27T09:24:20.552Z,23.83
2023-02-27T09:25:17.937Z,23.85
2023-02-27T09:26:17.889Z,23.85
2023-02-27T09:27:17.864Z,23.86
2023-02-27T09:28:20.982Z,23.88
2023-02-27T09:29:18.028Z,23.88
2023-02-27T09:30:17.690Z,23.89
2023-02-27T09:31:17.700Z,23.91
2023-02-27T09:32:18.106Z,23.93
2023-02-27T09:33:18.514Z,23.93
2023-02-27T09:34:17.460Z,23.95
2023-02-27T09:35:17.404Z,23.97
2023-02-27T09:36:17.353Z,23.99
2023-02-27T09:37:17.526Z,24.01
2023-02-27T09:38:17.530Z,24.02
2023-02-27T09:39:17.174Z,24.02
2023-02-27T09:40:17.115Z,24.03
2023-02-27T09:41:17.537Z,24.03
2023-02-27T09:42:17.010Z,24.03
2023-02-27T09:43:17.107Z,24.02
2023-02-27T09:44:16.911Z,24.02
2023-02-27T09:45:17.041Z,24.02
2023-02-27T09:46:17.081Z,24.02
2023-02-27T09:47:16.755Z,24.01
2023-02-27T09:48:16.689Z,24.00
2023-02-27T09:49:16.634Z,24.01
2023-02-27T09:50:17.062Z,24.01
2023-02-27T09:51:16.535Z,23.99
2023-02-27T09:52:16.501Z,23.79
2023-02-27T09:53:16.454Z,23.38
2023-02-27T09:54:16.414Z,22.89
2023-02-27T09:55:16.547Z,22.65
2023-02-27T09:56:16.535Z,22.54
2023-02-27T09:57:16.285Z,22.49
2023-02-27T09:58:16.262Z,22.48
2023-02-27T09:59:16.259Z,22.48
2023-02-27T10:00:16.621Z,22.48
2023-02-27T10:01:16.596Z,22.49
2023-02-27T10:02:16.128Z,22.52
2023-02-27T10:03:16.096Z,22.55
2023-02-27T10:04:16.031Z,22.57
2023-02-27T10:05:16.000Z,22.58
2023-02-27T10:06:16.078Z,22.59
2023-02-27T10:07:15.952Z,22.59
2023-02-27T10:08:19.087Z,22.59
2023-02-27T10:09:16.061Z,22.58
2023-02-27T10:10:15.832Z,22.59
2023-02-27T10:11:16.042Z,22.60
2023-02-27T10:12:15.765Z,22.60
2023-02-27T10:13:15.728Z,22.61
2023-02-27T10:14:15.710Z,22.59
2023-02-27T10:15:15.690Z,22.56
2023-02-27T10:16:15.741Z,22.54
2023-02-27T10:17:15.598Z,22.51
2023-02-27T10:18:26.189Z,22.52
2023-02-27T10:19:15.574Z,22.53
2023-02-27T10:20:15.517Z,22.58
2023-02-27T10:21:15.554Z,22.64
2023-02-27T10:22:15.447Z,22.70
2023-02-27T10:23:15.390Z,22.76
2023-02-27T10:24:15.356Z,22.83
2023-02-27T10:25:30.132Z,22.89
2023-02-27T10:26:15.293Z,22.95
2023-02-27T10:27:15.787Z,23.02
2023-02-27T10:28:15.224Z,23.09
2023-02-27T10:29:15.563Z,23.15
2023-02-27T10:30:23.581Z,23.18
2023-02-27T10:31:15.166Z,23.21
2023-02-27T10:32:15.139Z,23.24
2023-02-27T10:33:15.020Z,23.24
2023-02-27T10:34:15.091Z,23.27
2023-02-27T10:35:14.934Z,23.28
2023-02-27T10:36:32.424Z,23.30
2023-02-27T10:37:15.033Z,23.33
2023-02-27T10:38:14.772Z,23.35
2023-02-27T10:39:15.086Z,23.35
2023-02-27T10:40:14.689Z,23.35
2023-02-27T10:41:14.635Z,23.37
2023-02-27T10:42:14.590Z,23.39
2023-02-27T10:43:15.546Z,23.41
2023-02-27T10:44:14.541Z,23.42
2023-02-27T10:45:15.468Z,23.44
2023-02-27T10:46:15.469Z,23.45
2023-02-27T10:47:14.581Z,23.45
2023-02-27T10:48:14.314Z,23.46
2023-02-27T10:49:14.267Z,23.45
2023-02-27T10:50:14.205Z,23.46
2023-02-27T10:51:14.149Z,23.47
2023-02-27T10:52:14.094Z,23.48
2023-02-27T10:53:14.037Z,23.48
2023-02-27T10:54:14.060Z,23.48
2023-02-27T10:55:13.959Z,23.48
2023-02-27T10:56:13.903Z,23.50
2023-02-27T10:57:14.082Z,23.50
2023-02-27T10:58:13.812Z,23.52
2023-02-27T10:59:14.060Z,23.54
2023-02-27T11:00:13.719Z,23.54
2023-02-27T11:01:13.726Z,23.55
2023-02-27T11:02:13.608Z,23.55
2023-02-27T11:03:13.616Z,23.56
2023-02-27T11:04:13.594Z,23.57
2023-02-27T11:05:13.444Z,23.57
2023-02-27T11:06:13.374Z,23.58
2023-02-27T11:07:14.109Z,23.59
2023-02-27T11:08:13.295Z,23.61
2023-02-27T11:09:13.613Z,23.62
2023-02-27T11:10:13.171Z,23.61
2023-02-27T11:11:13.145Z,23.62
2023-02-27T11:12:13.065Z,23.63
2023-02-27T11:13:13.006Z,23.64
2023-02-27T11:14:13.066Z,23.66
2023-02-27T11:15:12.885Z,23.65
2023-02-27T11:16:12.865Z,23.66
2023-02-27T11:17:12.776Z,23.65
2023-02-27T11:18:12.721Z,23.64
2023-02-27T11:19:14.505Z,23.64
2023-02-27T11:20:12.630Z,23.62
2023-02-27T11:21:13.065Z,23.61
2023-02-27T11:22:12.549Z,23.58
2023-02-27T11:23:12.477Z,23.57
2023-02-27T11:24:12.439Z,23.55
2023-02-27T11:25:12.388Z,23.53
2023-02-27T11:26:12.576Z,23.53
2023-02-27T11:27:13.290Z,23.51
2023-02-27T11:28:12.243Z,23.50
2023-02-27T11:29:12.201Z,23.49
2023-02-27T11:30:12.575Z,23.49
2023-02-27T11:31:13.228Z,23.47
2023-02-27T11:32:12.111Z,23.46
2023-02-27T11:33:12.077Z,23.45
2023-02-27T11:34:12.019Z,23.39
2023-02-27T11:35:12.099Z,23.29
2023-02-27T11:36:11.941Z,23.17
2023-02-27T11:37:12.226Z,23.10
2023-02-27T11:38:11.832Z,23.07
2023-02-27T11:39:11.787Z,23.07
2023-02-27T11:40:12.083Z,23.09
2023-02-27T11:41:11.719Z,23.11
2023-02-27T11:42:12.684Z,23.14
2023-02-27T11:43:12.345Z,23.16
2023-02-27T11:44:11.573Z,23.18
2023-02-27T11:45:11.526Z,23.22
2023-02-27T11:46:47.342Z,23.25
2023-02-27T11:47:11.450Z,23.28
2023-02-27T11:48:11.585Z,23.32
2023-02-27T11:49:11.334Z,23.35
2023-02-27T11:50:11.277Z,23.38
2023-02-27T11:51:11.265Z,23.42
2023-02-27T11:52:11.173Z,23.44
2023-02-27T11:53:11.608Z,23.46
2023-02-27T11:54:11.066Z,23.49
2023-02-27T11:55:11.017Z,23.50
2023-02-27T11:56:11.086Z,23.51
2023-02-27T11:57:10.925Z,23.53
2023-02-27T11:58:11.164Z,23.54
2023-02-27T11:59:10.824Z,23.55
2023-02-27T12:00:10.773Z,23.57
2023-02-27T12:01:10.727Z,23.59
2023-02-27T12:02:11.091Z,23.61
2023-02-27T12:03:10.707Z,23.63
2023-02-27T12:04:10.634Z,23.64
2023-02-27T12:05:10.530Z,23.66
2023-02-27T12:06:10.614Z,23.66
2023-02-27T12:07:10.451Z,23.68
2023-02-27T12:08:10.601Z,23.69
2023-02-27T12:09:10.310Z,23.70
2023-02-27T12:10:10.256Z,23.71
2023-02-27T12:11:14.524Z,23.70
2023-02-27T12:12:10.164Z,23.69
2023-02-27T12:13:10.131Z,23.69
2023-02-27T12:14:10.083Z,23.68
2023-02-27T12:15:10.014Z,23.67
2023-02-27T12:16:10.265Z,23.65
2023-02-27T12:17:09.912Z,23.64
2023-02-27T12:18:09.861Z,23.64
2023-02-27T12:19:09.812Z,23.62
2023-02-27T12:20:09.793Z,23.61
2023-02-27T12:21:10.152Z,23.60
2023-02-27T12:22:09.649Z,23.57
2023-02-27T12:23:09.646Z,23.56
2023-02-27T12:24:09.545Z,23.53
2023-02-27T12:25:09.503Z,23.53
2023-02-27T12:26:09.607Z,23.22
2023-02-27T12:27:09.611Z,22.06
2023-02-27T12:28:09.397Z,20.95
2023-02-27T12:29:09.401Z,20.01
2023-02-27T12:30:09.388Z,19.24
2023-02-27T12:31:09.424Z,19.09
2023-02-27T12:32:09.719Z,19.22
2023-02-27T12:33:09.396Z,19.49
2023-02-27T12:34:09.612Z,19.79
2023-02-27T12:35:09.390Z,20.08
2023-02-27T12:36:09.401Z,20.33
2023-02-27T12:37:09.598Z,20.57
2023-02-27T12:38:09.373Z,20.78
2023-02-27T12:39:09.390Z,20.99
2023-02-27T12:40:09.750Z,21.16
2023-02-27T12:41:09.922Z,21.32
2023-02-27T12:42:09.606Z,21.48
2023-02-27T12:43:10.935Z,21.62
2023-02-27T12:44:09.604Z,21.76
2023-02-27T12:45:09.237Z,21.88
2023-02-27T12:46:09.211Z,22.01
2023-02-27T12:47:09.613Z,22.11
2023-02-27T12:48:09.108Z,22.22
2023-02-27T12:49:11.024Z,22.31
2023-02-27T12:50:09.038Z,22.40
2023-02-27T12:51:08.983Z,22.48
2023-02-27T12:52:09.134Z,22.56
2023-02-27T12:53:08.901Z,22.61
2023-02-27T12:54:08.888Z,22.65
2023-02-27T12:55:08.931Z,22.70
2023-02-27T12:56:08.796Z,22.74
2023-02-27T12:57:08.745Z,22.79
2023-02-27T12:58:09.245Z,22.83
2023-02-27T12:59:09.177Z,22.87
2023-02-27T13:00:09.237Z,22.92
2023-02-27T13:01:09.125Z,22.96
2023-02-27T13:02:08.543Z,22.99
2023-02-27T13:03:09.152Z,23.02
2023-02-27T13:04:08.658Z,23.04
2023-02-27T13:05:08.626Z,23.08
2023-02-27T13:06:08.769Z,23.11
2023-02-27T13:07:08.419Z,23.13
2023-02-27T13:08:08.843Z,23.14
2023-02-27T13:09:08.372Z,23.18
2023-02-27T13:10:08.395Z,23.20
2023-02-27T13:11:08.193Z,23.21
2023-02-27T13:12:08.103Z,23.24
2023-02-27T13:13:09.687Z,23.26
2023-02-27T13:14:08.270Z,23.26
2023-02-27T13:15:08.223Z,23.29
2023-02-27T13:16:08.273Z,23.31
2023-02-27T13:17:08.119Z,23.32
2023-02-27T13:18:08.217Z,23.34
2023-02-27T13:19:08.031Z,23.35
2023-02-27T13:20:08.201Z,23.36
2023-02-27T13:21:07.933Z,23.37
2023-02-27T13:22:07.855Z,23.37
2023-02-27T13:23:08.159Z,23.40
2023-02-27T13:24:07.943Z,23.43
2023-02-27T13:25:07.859Z,23.44
2023-02-27T13:26:07.828Z,23.44
2023-02-27T13:27:07.783Z,23.45
2023-02-27T13:28:07.610Z,23.46
2023-02-27T13:29:07.692Z,23.47
2023-02-27T13:30:07.681Z,23.47
2023-02-27T13:31:07.524Z,23.48
2023-02-27T13:32:07.542Z,23.49
2023-02-27T13:33:08.032Z,23.50
2023-02-27T13:34:07.666Z,23.50
2023-02-27T13:35:07.775Z,23.50
2023-02-27T13:36:07.252Z,23.51
2023-02-27T13:37:07.299Z,23.50
2023-02-27T13:38:07.778Z,23.49
2023-02-27T13:39:07.655Z,23.51
2023-02-27T13:40:06.979Z,23.52
2023-02-27T13:41:07.125Z,23.53